< < Back
Terminal Aerodrome Forecast


Current Version              Previous Versions:   1  2  3  4  5  6  7  8  9  

Terminal Aerodrome Forecast

052
FTUS42 KFFC 251724
TAFCSG
TAF
KCSG 251724Z 2518/2618 32008KT P6SM VCSH SCT060
      TEMPO 2520/2524 4SM -TSRA BKN040CB
     FM260200 35006KT P6SM SCT070
     FM261000 06008KT P6SM BKN015
     FM261500 07009KT P6SM SCT035
     FM261700 08010KT P6SM VCSH SCT050=

Latest METAR

650
SAUS70 KWBC 260100
MTRCSG
METAR KCSG 260051Z 24006KT 10SM CLR 31/19 A3003 RMK AO2 SLP163
T03060194


USA.gov is the U.S. government's official web portal to all federal, state and local government web resources and services.